Flight Track Log - Related Links

Times and Time Zones

All times are in EDT time to prevent confusion due to time zone crossing. See the UAL395 flight status page for this flight to view local times or setup timezone preferences in your user account.

Time Position Orientation Groundspeed Altitude Reporting Facility
EDT Latitude Longitude Course Direction KTS MPH feet Rate Location/Type
Thu 10:06:19 AM 45.5839 -122.5681 112° Southeast 161 185 500  Level Seattle Center
Thu 10:07:02 AM 45.5739 -122.5197 106° East 176 203 1,700 1,631 Climbing Seattle Center
Thu 10:08:02 AM 45.5611 -122.4353 102° East 242 278 3,300 2,035 Climbing Seattle Center
Thu 10:08:57 AM 45.5428 -122.3442 106° East 280 322 5,600 2,586 Climbing Seattle Center
Thu 10:09:00 AM 45.3895 -122.1459 138° Southeast  Level FlightAware Approximate
Thu 10:09:58 AM 45.4867 -122.2719 138° Southeast 280 322 8,300  Level Seattle Center
Thu 10:10:00 AM 45.2945 -122.0238 138° Southeast  Level FlightAware Approximate
Thu 10:11:00 AM 45.2198 -121.8860 112° Southeast  Level FlightAware Approximate
Thu 10:11:01 AM 45.4322 -122.2033 139° Southeast 287 330 10,300  Level Seattle Center
Thu 10:12:02 AM 45.3447 -122.0942 139° Southeast 349 402 11,800 1,770 Climbing Seattle Center
Thu 10:13:03 AM 45.2750 -121.9867 133° Southeast 374 430 13,900 2,410 Climbing Seattle Center
Thu 10:14:04 AM 45.2414 -121.8597 111° Southeast 375 432 16,700 2,311 Climbing Seattle Center
Thu 10:15:05 AM 45.2044 -121.7200 111° Southeast 378 435 18,600 1,623 Climbing Seattle Center
Thu 10:16:06 AM 45.1661 -121.5764 111° Southeast 389 448 20,000 942 Climbing Seattle Center
Thu 10:17:06 AM 45.1103 -121.4347 119° Southeast 411 473 20,500 893 Climbing Seattle Center
Thu 10:18:07 AM 45.0514 -121.2817 119° Southeast 441 507 21,800 1,279 Climbing Seattle Center
Thu 10:19:08 AM 44.9800 -121.0956 118° Southeast 451 519 23,100 1,180 Climbing Seattle Center
Thu 10:20:09 AM 44.9194 -120.9372 118° Southeast 460 529 24,200 1,033 Climbing Seattle Center
Thu 10:21:10 AM 44.8575 -120.7786 119° Southeast 464 534 25,200 934 Climbing Seattle Center
Thu 10:22:11 AM 44.7933 -120.6161 119° Southeast 474 545 26,100 934 Climbing Seattle Center
Thu 10:23:12 AM 44.7286 -120.4522 119° Southeast 481 554 27,100 1,082 Climbing Seattle Center
Thu 10:24:13 AM 44.6650 -120.2908 119° Southeast 479 551 28,300 1,082 Climbing Seattle Center
Thu 10:25:14 AM 44.6014 -120.1314 119° Southeast 476 548 29,300 1,082 Climbing Seattle Center
Thu 10:26:15 AM 44.5375 -119.9711 119° Southeast 476 548 30,500 1,180 Climbing Seattle Center
Thu 10:27:16 AM 44.4617 -119.7828 119° Southeast 468 539 31,700 1,082 Climbing Seattle Center
Thu 10:28:17 AM 44.3992 -119.6261 119° Southeast 466 536 32,700 836 Climbing Seattle Center
Thu 10:29:18 AM 44.3350 -119.4725 120° Southeast 461 531 33,400 787 Climbing Seattle Center
Thu 10:30:19 AM 44.2708 -119.3164 120° Southeast 465 535 34,300 787 Climbing Seattle Center
Thu 10:31:20 AM 44.2081 -119.1628 120° Southeast 461 531 35,000 344 Climbing Seattle Center
Thu 10:32:21 AM 44.1444 -119.0086 120° Southeast 459 528 35,000  Level Seattle Center
Thu 10:34:23 AM 44.0161 -118.7019 120° Southeast 461 531 35,000  Level Seattle Center
Thu 10:35:24 AM 43.9519 -118.5517 121° Southeast 458 527 35,000  Level Seattle Center
Thu 10:36:25 AM 43.8883 -118.3992 120° Southeast 460 529 35,000  Level Seattle Center
Thu 10:37:26 AM 43.8225 -118.2469 121° Southeast 463 533 35,000  Level Seattle Center
Thu 10:38:27 AM 43.7450 -118.0642 120° Southeast 462 532 35,000  Level Seattle Center
Thu 10:39:29 AM 43.6817 -117.9103 120° Southeast 464 534 35,000  Level Seattle Center
Thu 10:40:30 AM 43.6200 -117.7556 119° Southeast 462 532 35,000  Level Seattle Center
Thu 10:41:52 AM 43.5206 -117.5403 122° Southeast 464 534 35,000  Level Salt Lake Center
Thu 10:42:54 AM 43.4500 -117.3842 122° Southeast 464 534 35,000  Level Salt Lake Center
Thu 10:43:56 AM 43.3808 -117.2253 121° Southeast 463 533 35,000  Level Salt Lake Center
Thu 10:44:58 AM 43.3169 -117.0786 121° Southeast 463 533 35,000  Level Salt Lake Center
Thu 10:46:00 AM 43.2467 -116.9214 121° Southeast 463 533 35,000  Level Salt Lake Center
Thu 10:47:02 AM 43.1756 -116.7642 122° Southeast 464 534 35,000  Level Salt Lake Center
Thu 10:48:05 AM 43.1053 -116.6075 122° Southeast 463 533 35,000  Level Salt Lake Center
Thu 10:49:07 AM 43.0344 -116.4511 122° Southeast 464 534 35,000  Level Salt Lake Center
Thu 10:50:09 AM 42.9636 -116.2961 122° Southeast 463 533 35,000  Level Salt Lake Center
Thu 10:51:11 AM 42.8917 -116.1394 122° Southeast 468 539 35,000  Level Salt Lake Center
Thu 10:52:13 AM 42.8206 -115.9836 122° Southeast 469 540 35,000  Level Salt Lake Center
Thu 10:53:15 AM 42.7492 -115.8281 122° Southeast 467 537 35,000  Level Salt Lake Center
Thu 10:54:17 AM 42.6775 -115.6722 122° Southeast 466 536 35,000  Level Salt Lake Center
Thu 10:55:19 AM 42.6106 -115.5289 122° Southeast 467 537 35,000  Level Salt Lake Center
Thu 10:56:21 AM 42.5383 -115.3739 122° Southeast 468 539 35,000  Level Salt Lake Center
Thu 10:57:23 AM 42.4653 -115.2192 123° Southeast 466 536 35,000  Level Salt Lake Center
Thu 10:58:25 AM 42.3917 -115.0636 123° Southeast 470 541 35,000  Level Salt Lake Center
Thu 10:59:28 AM 42.3178 -114.9092 123° Southeast 469 540 35,000  Level Salt Lake Center
Thu 11:00:30 AM 42.2519 -114.7714 123° Southeast 475 547 35,000  Level Salt Lake Center
Thu 11:01:32 AM 42.1678 -114.5931 122° Southeast 474 545 35,000  Level Salt Lake Center
Thu 11:02:34 AM 42.1025 -114.4403 120° Southeast 469 540 35,000  Level Salt Lake Center
Thu 11:03:36 AM 42.0350 -114.2881 121° Southeast 475 547 35,000  Level Salt Lake Center
Thu 11:04:39 AM 41.9681 -114.1364 121° Southeast 473 544 35,000  Level Salt Lake Center
Thu 11:05:40 AM 41.9017 -113.9853 121° Southeast 471 542 35,000  Level Salt Lake Center
Thu 11:06:42 AM 41.8342 -113.8333 121° Southeast 475 547 35,000  Level Salt Lake Center
Thu 11:07:44 AM 41.7522 -113.6519 121° Southeast 476 548 35,000  Level Salt Lake Center
Thu 11:08:46 AM 41.6842 -113.4997 121° Southeast 476 548 35,000  Level Salt Lake Center
Thu 11:09:48 AM 41.6164 -113.3486 121° Southeast 475 547 35,000  Level Salt Lake Center
Thu 11:10:50 AM 41.5464 -113.1978 122° Southeast 478 550 35,000  Level Salt Lake Center
Thu 11:11:53 AM 41.4781 -113.0469 121° Southeast 477 549 35,000  Level Salt Lake Center
Thu 11:12:55 AM 41.4097 -112.8969 121° Southeast 476 548 35,000  Level Salt Lake Center
Thu 11:13:57 AM 41.3264 -112.7178 122° Southeast 476 548 35,000  Level Salt Lake Center
Thu 11:14:59 AM 41.2578 -112.5689 121° Southeast 475 547 35,000  Level Salt Lake Center
Thu 11:16:01 AM 41.1883 -112.4206 122° Southeast 475 547 35,000  Level Salt Lake Center
Thu 11:17:03 AM 41.1189 -112.2717 122° Southeast 477 549 35,000  Level Salt Lake Center
Thu 11:18:05 AM 41.0492 -112.1236 122° Southeast 478 550 35,000  Level Salt Lake Center
Thu 11:19:07 AM 40.9661 -111.9481 122° Southeast 479 551 35,000  Level Salt Lake Center
Thu 11:20:09 AM 40.8983 -111.8042 122° Southeast 481 554 35,000  Level Salt Lake Center
Thu 11:21:11 AM 40.8272 -111.6561 122° Southeast 484 557 35,000  Level Salt Lake Center
Thu 11:22:13 AM 40.7569 -111.5094 122° Southeast 477 549 35,000  Level Salt Lake Center
Thu 11:23:15 AM 40.6714 -111.3322 122° Southeast 477 549 35,000  Level Salt Lake Center
Thu 11:24:17 AM 40.6008 -111.1875 123° Southeast 473 544 35,000  Level Salt Lake Center
Thu 11:25:19 AM 40.5281 -111.0397 123° Southeast 480 552 35,000  Level Salt Lake Center
Thu 11:26:21 AM 40.4561 -110.8922 123° Southeast 480 552 35,000  Level Salt Lake Center
Thu 11:27:23 AM 40.3828 -110.7450 123° Southeast 482 555 35,000  Level Salt Lake Center
Thu 11:28:25 AM 40.2978 -110.5714 123° Southeast 484 557 35,000  Level Salt Lake Center
Thu 11:29:27 AM 40.2278 -110.4311 123° Southeast 483 556 35,000  Level Salt Lake Center
Thu 11:30:29 AM 40.1464 -110.2675 123° Southeast 482 555 35,000  Level Salt Lake Center
Thu 11:31:31 AM 40.0753 -110.1272 123° Southeast 483 556 35,000  Level Salt Lake Center
Thu 11:32:33 AM 40.0042 -109.9861 123° Southeast 486 559 35,000  Level Salt Lake Center
Thu 11:33:35 AM 39.9217 -109.8236 123° Southeast 484 557 35,000  Level Salt Lake Center
Thu 11:34:37 AM 39.8508 -109.6836 123° Southeast 485 558 35,000  Level Salt Lake Center
Thu 11:35:39 AM 39.7669 -109.5208 124° Southeast 485 558 35,000  Level Salt Lake Center
Thu 11:36:41 AM 39.6961 -109.3819 124° Southeast 485 558 35,000  Level Salt Lake Center
Thu 11:37:44 AM 39.6114 -109.2189 124° Southeast 489 563 35,000  Level Salt Lake Center
Thu 11:38:46 AM 39.5386 -109.0814 124° Southeast 488 562 35,000  Level Salt Lake Center
Thu 11:39:48 AM 39.4544 -108.9186 124° Southeast 493 567 35,000  Level Salt Lake Center
Thu 11:40:50 AM 39.3703 -108.7558 124° Southeast 493 567 35,000  Level Salt Lake Center
Thu 11:41:52 AM 39.2969 -108.6175 124° Southeast 491 565 35,000  Level Salt Lake Center
Thu 11:42:54 AM 39.2114 -108.4558 124° Southeast 491 565 35,000  Level Salt Lake Center
Thu 11:44:07 AM 39.1267 -108.2903 123° Southeast 488 562 35,000  Level Denver Center
Thu 11:45:10 AM 39.0397 -108.1297 125° Southeast 489 563 35,000  Level Denver Center
Thu 11:46:12 AM 38.9658 -107.9911 124° Southeast 491 565 35,000  Level Denver Center
Thu 11:47:14 AM 38.8792 -107.8322 125° Southeast 486 559 35,000  Level Denver Center
Thu 11:48:16 AM 38.8044 -107.6947 125° Southeast 489 563 35,000  Level Denver Center
Thu 11:49:18 AM 38.7169 -107.5347 125° Southeast 491 565 35,000  Level Denver Center
Thu 11:50:20 AM 38.6408 -107.3969 125° Southeast 493 567 35,000  Level Denver Center
Thu 11:51:22 AM 38.5664 -107.2603 125° Southeast 491 565 35,000  Level Denver Center
Thu 11:52:24 AM 38.4772 -107.0989 125° Southeast 492 566 35,000  Level Denver Center
Thu 11:53:26 AM 38.3975 -106.9550 125° Southeast 495 570 35,000  Level Denver Center
Thu 11:54:28 AM 38.3131 -106.8053 126° Southeast 494 568 35,000  Level Denver Center
Thu 11:55:30 AM 38.2347 -106.6703 126° Southeast 494 568 35,000  Level Denver Center
Thu 11:56:32 AM 38.1597 -106.5314 124° Southeast 497 572 35,000  Level Denver Center
Thu 11:57:34 AM 38.0647 -106.3592 125° Southeast 500 575 35,000  Level Denver Center
Thu 11:58:36 AM 37.9864 -106.2233 126° Southeast 500 575 35,000  Level Denver Center
Thu 11:59:38 AM 37.8944 -106.0619 126° Southeast 504 580 35,000  Level Denver Center
Thu 12:00:40 PM 37.8158 -105.9250 126° Southeast 505 581 35,000  Level Denver Center
Thu 12:01:42 PM 37.7231 -105.7644 126° Southeast 506 582 35,000  Level Denver Center
Thu 12:02:44 PM 37.6433 -105.6261 126° Southeast 510 587 35,000  Level Denver Center
Thu 12:03:47 PM 37.5519 -105.4658 126° Southeast 506 582 35,000  Level Denver Center
Thu 12:04:49 PM 37.4753 -105.3344 126° Southeast 507 583 35,000  Level Denver Center
Thu 12:05:51 PM 37.3761 -105.1656 126° Southeast 514 592 35,000  Level Denver Center
Thu 12:06:53 PM 37.2953 -105.0281 126° Southeast 514 592 35,000  Level Denver Center
Thu 12:07:55 PM 37.2006 -104.8672 126° Southeast 514 592 35,000  Level Denver Center
Thu 12:08:57 PM 37.1189 -104.7278 126° Southeast 519 597 35,000  Level Denver Center
Thu 12:09:59 PM 37.0228 -104.5681 127° Southeast 518 596 35,000  Level Denver Center
Thu 12:11:01 PM 36.9400 -104.4300 127° Southeast 521 600 35,000  Level Denver Center
Thu 12:12:22 PM 36.8150 -104.2203 127° Southeast 525 604 35,000  Level Albuquerque Center
Thu 12:13:24 PM 36.7294 -104.0794 127° Southeast 531 611 35,000  Level Albuquerque Center
Thu 12:14:26 PM 36.6300 -103.9161 127° Southeast 532 612 35,000  Level Albuquerque Center
Thu 12:15:28 PM 36.5439 -103.7736 127° Southeast 536 617 35,000  Level Albuquerque Center
Thu 12:16:30 PM 36.4439 -103.6094 127° Southeast 535 616 35,000  Level Albuquerque Center
Thu 12:18:34 PM 36.2542 -103.3047 128° Southeast 538 619 35,000  Level Albuquerque Center
Thu 12:19:36 PM 36.1611 -103.1542 127° Southeast 537 618 35,000  Level Albuquerque Center
Thu 12:20:38 PM 36.0694 -103.0086 128° Southeast 538 619 35,000  Level Albuquerque Center
Thu 12:21:40 PM 35.9781 -102.8617 128° Southeast 540 621 35,000  Level Albuquerque Center
Thu 12:22:42 PM 35.8853 -102.7164 128° Southeast 540 621 35,000  Level Albuquerque Center
Thu 12:23:44 PM 35.7942 -102.5703 128° Southeast 539 620 35,000  Level Albuquerque Center
Thu 12:24:46 PM 35.7014 -102.4250 128° Southeast 541 623 35,000  Level Albuquerque Center
Thu 12:25:49 PM 35.5911 -102.2508 128° Southeast 538 619 35,000  Level Albuquerque Center
Thu 12:26:51 PM 35.4992 -102.1069 128° Southeast 538 619 35,000  Level Albuquerque Center
Thu 12:27:53 PM 35.4050 -101.9606 128° Southeast 535 616 35,000  Level Albuquerque Center
Thu 12:28:55 PM 35.3108 -101.8169 129° Southeast 538 619 35,000  Level Albuquerque Center
Thu 12:29:57 PM 35.2258 -101.6850 128° Southeast 535 616 35,000  Level Albuquerque Center
Thu 12:30:59 PM 35.1275 -101.5314 128° Southeast 534 615 35,000  Level Albuquerque Center
Thu 12:32:01 PM 35.0342 -101.3883 129° Southeast 536 617 35,000  Level Albuquerque Center
Thu 12:33:03 PM 34.9361 -101.2378 128° Southeast 534 615 35,000  Level Albuquerque Center
Thu 12:34:05 PM 34.8461 -101.0978 128° Southeast 529 609 35,000  Level Albuquerque Center
Thu 12:35:07 PM 34.7361 -100.9300 129° Southeast 529 609 35,000  Level Albuquerque Center
Thu 12:36:09 PM 34.6447 -100.7911 129° Southeast 528 608 35,000  Level Albuquerque Center
Thu 12:37:11 PM 34.5533 -100.6528 129° Southeast 527 606 35,000  Level Albuquerque Center
Thu 12:38:13 PM 34.4617 -100.5147 129° Southeast 526 605 35,000  Level Albuquerque Center
Thu 12:39:15 PM 34.3700 -100.3772 129° Southeast 526 605 35,000  Level Albuquerque Center
Thu 12:39:53 PM 34.2992 -100.2694 128° Southeast 530 610 35,000  Level Fort Worth Center
Thu 12:40:53 PM 34.2083 -100.1333 129° Southeast 530 610 35,000  Level Fort Worth Center
Thu 12:41:53 PM 34.1153 -100.0000 130° Southeast 524 603 35,000  Level Fort Worth Center
Thu 12:42:53 PM 34.0242 -99.8594 128° Southeast 524 603 35,000  Level Fort Worth Center
Thu 12:43:53 PM 33.9308 -99.7239 130° Southeast 530 610 35,000  Level Fort Worth Center
Thu 12:44:53 PM 33.8392 -99.5917 130° Southeast 530 610 35,000  Level Fort Worth Center
Thu 12:45:54 PM 33.7475 -99.4594 130° Southeast 530 610 35,000  Level Fort Worth Center
Thu 12:46:53 PM 33.6558 -99.3225 129° Southeast 525 604 35,000  Level Fort Worth Center
Thu 12:47:53 PM 33.5658 -99.1933 130° Southeast 520 598 35,000  Level Fort Worth Center
Thu 12:48:53 PM 33.4758 -99.0594 129° Southeast 520 598 35,000  Level Fort Worth Center
Thu 12:49:53 PM 33.3836 -98.9261 130° Southeast 520 598 35,000  Level Fort Worth Center
Thu 12:50:53 PM 33.2911 -98.7978 131° Southeast 515 593 35,000  Level Fort Worth Center
Thu 12:51:53 PM 33.1986 -98.6672 130° Southeast 515 593 35,000  Level Fort Worth Center
Thu 12:52:53 PM 33.1100 -98.5344 129° Southeast 515 593 35,000  Level Fort Worth Center
Thu 12:53:53 PM 33.0275 -98.4219 131° Southeast 509 586 35,000  Level Fort Worth Center
Thu 12:54:53 PM 32.9325 -98.2922 131° Southeast 509 586 35,000  Level Fort Worth Center
Thu 12:55:53 PM 32.8417 -98.1625 130° Southeast 514 592 35,000  Level Fort Worth Center
Thu 12:56:53 PM 32.7483 -98.0333 131° Southeast 514 592 35,000  Level Fort Worth Center
Thu 12:57:53 PM 32.6403 -97.8944 133° Southeast 521 600 35,000  Level Fort Worth Center
Thu 12:58:53 PM 32.5406 -97.7708 134° Southeast 516 594 35,000  Level Fort Worth Center
Thu 12:59:53 PM 32.4406 -97.6472 134° Southeast 516 594 35,000  Level Fort Worth Center
Thu 01:00:53 PM 32.3447 -97.5264 133° Southeast 511 588 35,000  Level Fort Worth Center
Thu 01:01:53 PM 32.2489 -97.4036 133° Southeast 511 588 35,000  Level Fort Worth Center
Thu 01:02:53 PM 32.1464 -97.2833 135° Southeast 511 588 35,000  Level Fort Worth Center
Thu 01:03:53 PM 32.0503 -97.1633 133° Southeast 511 588 35,000  Level Fort Worth Center
Thu 01:04:53 PM 31.9686 -97.0656 135° Southeast 511 588 35,000 -350 Level Fort Worth Center
Thu 01:05:53 PM 31.8639 -96.9314 133° Southeast 511 588 34,300 -857 Descending Fort Worth Center
Thu 01:06:38 PM 31.7822 -96.8300 133° Southeast 510 587 33,500 -953 Descending Houston Center
Thu 01:07:40 PM 31.6828 -96.7089 134° Southeast 508 585 32,600 -919 Descending Houston Center
Thu 01:08:42 PM 31.5858 -96.5914 134° Southeast 500 575 31,600 -1,113 Descending Houston Center
Thu 01:09:44 PM 31.4689 -96.5011 147° Southeast 499 574 30,300 -1,742 Descending Houston Center
Thu 01:10:46 PM 31.3389 -96.4453 160° South 491 565 28,000 -2,177 Descending Houston Center
Thu 01:11:48 PM 31.2042 -96.3950 162° South 499 574 25,800 -2,081 Descending Houston Center
Thu 01:12:50 PM 31.0722 -96.3450 162° South 496 571 23,700 -1,984 Descending Houston Center
Thu 01:13:52 PM 30.9492 -96.3008 163° South 467 537 21,700 -1,935 Descending Houston Center
Thu 01:14:54 PM 30.8289 -96.2517 161° South 455 524 19,700 -1,935 Descending Houston Center
Thu 01:15:56 PM 30.7056 -96.1636 148° Southeast 441 507 17,700 -1,887 Descending Houston Center
Thu 01:16:58 PM 30.6222 -96.0603 133° Southeast 438 504 15,800 -1,842 Descending Houston Center
Thu 01:17:37 PM 30.5656 -95.9978 136° Southeast 414 476 14,600 -1,860 Descending Houston Center
Thu 01:18:38 PM 30.4806 -95.9131 139° Southeast 380 437 12,700 -1,500 Descending Houston Center
Thu 01:19:45 PM 30.3933 -95.8264 139° Southeast 376 433 11,400 -1,033 Descending Houston Center
Thu 01:20:40 PM 30.3319 -95.7489 133° Southeast 340 391 10,600 -991 Descending Houston Center
Thu 01:21:34 PM 30.2775 -95.6778 132° Southeast 313 360 9,600 -1,034 Descending Houston Center
Thu 01:22:07 PM 30.2542 -95.6544 139° Southeast 318 366 9,100 -1,453 Descending Houston Center
Thu 01:23:09 PM 30.1775 -95.5739 138° Southeast 312 359 7,300 -1,500 Descending Houston Center
Thu 01:24:11 PM 30.1144 -95.5089 138° Southeast 307 353 6,000 -830 Descending Houston Center
Thu 01:24:43 PM 30.1047 -95.4614 103° East 285 328 6,000  Level Houston Center
Thu 01:25:13 PM 30.0994 -95.4172 98° East 292 336 6,000 -197 Level Houston Center
Thu 01:25:44 PM 30.0894 -95.3619 102° East 294 338 5,800 -968 Descending Houston Center
Thu 01:26:15 PM 30.0839 -95.3256 100° East 291 335 5,000 -1,970 Descending Houston Center
Thu 01:26:51 PM 30.0742 -95.2647 100° East 285 328 3,600 -1,978 Descending Houston Center
Thu 01:27:46 PM 30.0669 -95.1861 96° East 240 276 2,000 -1,091 Descending Houston Center
Thu 01:28:19 PM 30.0650 -95.1592 95° East 262 302 2,000  Level Houston Center
Thu 01:29:21 PM 30.0122 -95.1461 168° South 228 262 2,000 63 Level Houston Center
Thu 01:29:54 PM 29.9933 -95.1853 241° Southwest 181 208 2,100 -273 Climbing Houston Center
Thu 01:30:49 PM 29.9936 -95.2336 270° West 156 180 1,600 -462 Descending Houston Center
Thu 01:31:25 PM 29.9939 -95.2592 271° West 172 198 1,400 -673 Descending Houston Center
Thu 01:32:27 PM 29.9936 -95.3047 270° West 169 194 500 -532 Descending Houston Center
Thu 01:33:29 PM 29.9944 -95.3544 271° West 166 191 300 -194 Descending Houston Center

Login

Don't have an account? Register now (free) for customized features, flight alerts, and more!